createdAt,value
2017-06-27T00:00:14.863Z,1015.87
2017-06-27T00:01:37.019Z,1015.91
2017-06-27T00:02:58.863Z,1015.87
2017-06-27T00:04:20.884Z,1015.85
2017-06-27T00:05:43.385Z,1015.85
2017-06-27T00:07:04.892Z,1015.8
2017-06-27T00:08:26.771Z,1015.75
2017-06-27T00:09:48.276Z,1015.76
2017-06-27T00:11:10.575Z,1015.79
2017-06-27T00:12:32.395Z,1015.79
2017-06-27T00:13:54.393Z,1015.72
2017-06-27T00:15:16.193Z,1015.71
2017-06-27T00:16:38.658Z,1015.72
2017-06-27T00:18:00.176Z,1015.71
2017-06-27T00:19:21.377Z,1015.69
2017-06-27T00:20:43.960Z,1015.76
2017-06-27T00:22:06.422Z,1015.78
2017-06-27T00:23:28.242Z,1015.79
2017-06-27T00:24:49.733Z,1015.76
2017-06-27T00:26:11.856Z,1015.72
2017-06-27T00:27:34.337Z,1015.77
2017-06-27T00:28:56.265Z,1015.84
2017-06-27T00:30:18.082Z,1015.79
2017-06-27T00:31:40.221Z,1015.82
2017-06-27T00:33:02.729Z,1015.8
2017-06-27T00:34:24.336Z,1015.82
2017-06-27T00:35:46.462Z,1015.8
2017-06-27T00:37:08.676Z,1015.81
2017-06-27T00:38:31.138Z,1015.82
2017-06-27T00:39:53.044Z,1015.79
2017-06-27T00:41:15.167Z,1015.76
2017-06-27T00:42:37.314Z,1015.73
2017-06-27T00:43:59.623Z,1015.71
2017-06-27T00:45:21.443Z,1015.73
2017-06-27T00:46:43.384Z,1015.69
2017-06-27T00:48:05.500Z,1015.69
2017-06-27T00:49:27.651Z,1015.64
2017-06-27T00:50:49.135Z,1015.66
2017-06-27T00:52:11.560Z,1015.66
2017-06-27T00:53:33.990Z,1015.69
2017-06-27T00:54:56.849Z,1015.67
2017-06-27T00:56:18.968Z,1015.7
2017-06-27T00:57:40.154Z,1015.72
2017-06-27T00:59:02.712Z,1015.72
2017-06-27T01:00:25.189Z,1015.7
2017-06-27T01:01:46.695Z,1015.73
2017-06-27T01:03:08.523Z,1015.72
2017-06-27T01:04:31.061Z,1015.69
2017-06-27T01:05:53.243Z,1015.69
2017-06-27T01:07:15.403Z,1015.68
2017-06-27T01:08:37.222Z,1015.65
2017-06-27T01:09:59.049Z,1015.61
2017-06-27T01:11:21.436Z,1015.66
2017-06-27T01:12:43.258Z,1015.64
2017-06-27T01:14:05.063Z,1015.63
2017-06-27T01:15:27.173Z,1015.66
2017-06-27T01:16:49.494Z,1015.61
2017-06-27T01:18:11.625Z,1015.61
2017-06-27T01:19:33.432Z,1015.64
2017-06-27T01:20:55.265Z,1015.63
2017-06-27T01:22:17.434Z,1015.64
2017-06-27T01:23:39.245Z,1015.65
2017-06-27T01:25:00.756Z,1015.62
2017-06-27T01:26:22.882Z,1015.68
2017-06-27T01:27:45.355Z,1015.67
2017-06-27T01:29:07.597Z,1015.68
2017-06-27T01:30:29.462Z,1015.69
2017-06-27T01:31:51.892Z,1015.67
2017-06-27T01:33:14.053Z,1015.68
2017-06-27T01:34:35.852Z,1015.67
2017-06-27T01:35:57.997Z,1015.67
2017-06-27T01:37:19.792Z,1015.72
2017-06-27T01:38:42.574Z,1015.7
2017-06-27T01:40:05.263Z,1015.7
2017-06-27T01:41:27.735Z,1015.66
2017-06-27T01:42:49.578Z,1015.67
2017-06-27T01:44:11.672Z,1015.66
2017-06-27T01:45:33.786Z,1015.66
2017-06-27T01:46:55.399Z,1015.64
2017-06-27T01:48:17.063Z,1015.71
2017-06-27T01:49:39.510Z,1015.68
2017-06-27T01:51:01.974Z,1015.66
2017-06-27T01:52:23.493Z,1015.73
2017-06-27T01:53:45.939Z,1015.68
2017-06-27T01:55:08.122Z,1015.63
2017-06-27T01:56:30.245Z,1015.65
2017-06-27T01:57:52.380Z,1015.65
2017-06-27T01:59:14.489Z,1015.62
2017-06-27T02:00:36.284Z,1015.59
2017-06-27T02:01:58.075Z,1015.59
2017-06-27T02:03:19.885Z,1015.59
2017-06-27T02:04:41.720Z,1015.56
2017-06-27T02:06:03.811Z,1015.55
2017-06-27T02:07:25.933Z,1015.54
2017-06-27T02:08:48.054Z,1015.51
2017-06-27T02:10:09.844Z,1015.5
2017-06-27T02:11:32.024Z,1015.46
2017-06-27T02:12:53.946Z,1015.46
2017-06-27T02:14:15.765Z,1015.47
2017-06-27T02:15:37.685Z,1015.48
2017-06-27T02:16:59.473Z,1015.45
2017-06-27T02:18:21.613Z,1015.46
2017-06-27T02:19:43.411Z,1015.47
2017-06-27T02:21:05.521Z,1015.45
2017-06-27T02:22:28.013Z,1015.41
2017-06-27T02:23:49.612Z,1015.41
2017-06-27T02:25:11.440Z,1015.34
2017-06-27T02:26:33.301Z,1015.4
2017-06-27T02:27:55.353Z,1015.4
2017-06-27T02:29:17.492Z,1015.42
2017-06-27T02:30:39.125Z,1015.4
2017-06-27T02:32:01.266Z,1015.47
2017-06-27T02:33:23.777Z,1015.5
2017-06-27T02:34:45.325Z,1015.49
2017-06-27T02:36:06.831Z,1015.52
2017-06-27T02:37:28.955Z,1015.57
2017-06-27T02:38:51.742Z,1015.52
2017-06-27T02:40:13.582Z,1015.55
2017-06-27T02:41:35.394Z,1015.56
2017-06-27T02:42:57.200Z,1015.58
2017-06-27T02:44:19.054Z,1015.58
2017-06-27T02:45:40.551Z,1015.62
2017-06-27T02:47:02.502Z,1015.56
2017-06-27T02:48:24.343Z,1015.58
2017-06-27T02:49:46.218Z,1015.58
2017-06-27T02:51:08.354Z,1015.57
2017-06-27T02:52:30.171Z,1015.56
2017-06-27T02:53:52.598Z,1015.57
2017-06-27T02:55:15.017Z,1015.57
2017-06-27T02:56:36.206Z,1015.59
2017-06-27T02:57:58.032Z,1015.56
2017-06-27T02:59:20.284Z,1015.59
2017-06-27T03:00:42.718Z,1015.56
2017-06-27T03:02:04.213Z,1015.54
2017-06-27T03:03:26.014Z,1015.56
2017-06-27T03:04:48.608Z,1015.51
2017-06-27T03:06:10.762Z,1015.54
2017-06-27T03:07:33.032Z,1015.58
2017-06-27T03:08:54.209Z,1015.56
2017-06-27T03:10:16.334Z,1015.61
2017-06-27T03:11:38.513Z,1015.58
2017-06-27T03:13:00.112Z,1015.58
2017-06-27T03:14:21.717Z,1015.6
2017-06-27T03:15:43.203Z,1015.57
2017-06-27T03:17:05.374Z,1015.55
2017-06-27T03:18:27.817Z,1015.57
2017-06-27T03:19:49.622Z,1015.56
2017-06-27T03:21:11.734Z,1015.58
2017-06-27T03:22:33.861Z,1015.54
2017-06-27T03:23:55.050Z,1015.54
2017-06-27T03:25:17.144Z,1015.51
2017-06-27T03:26:38.680Z,1015.5
2017-06-27T03:28:00.465Z,1015.5
2017-06-27T03:29:22.901Z,1015.52
2017-06-27T03:30:45.049Z,1015.49
2017-06-27T03:32:07.274Z,1015.49
2017-06-27T03:33:30.020Z,1015.53
2017-06-27T03:34:51.944Z,1015.49
2017-06-27T03:36:13.743Z,1015.51
2017-06-27T03:37:35.576Z,1015.51
2017-06-27T03:38:58.533Z,1015.54
2017-06-27T03:40:20.964Z,1015.56
2017-06-27T03:41:43.418Z,1015.56
2017-06-27T03:43:05.642Z,1015.57
2017-06-27T03:44:28.180Z,1015.55
2017-06-27T03:45:50.373Z,1015.48
2017-06-27T03:47:11.898Z,1015.51
2017-06-27T03:48:33.381Z,1015.53
2017-06-27T03:49:54.930Z,1015.54
2017-06-27T03:51:17.060Z,1015.48
2017-06-27T03:52:38.863Z,1015.48
2017-06-27T03:54:01.006Z,1015.47
2017-06-27T03:55:23.309Z,1015.47
2017-06-27T03:56:45.901Z,1015.46
2017-06-27T03:58:07.786Z,1015.45
2017-06-27T03:59:30.212Z,1015.5
2017-06-27T04:00:52.332Z,1015.52
2017-06-27T04:02:13.588Z,1015.53
2017-06-27T04:03:35.385Z,1015.56
2017-06-27T04:04:57.194Z,1015.57
2017-06-27T04:06:19.639Z,1015.56
2017-06-27T04:07:41.139Z,1015.57
2017-06-27T04:09:03.044Z,1015.57
2017-06-27T04:10:24.583Z,1015.53
2017-06-27T04:11:46.748Z,1015.55
2017-06-27T04:13:08.906Z,1015.49
2017-06-27T04:14:31.233Z,1015.46
2017-06-27T04:15:52.733Z,1015.48
2017-06-27T04:17:14.622Z,1015.46
2017-06-27T04:18:36.754Z,1015.52
2017-06-27T04:19:58.712Z,1015.5
2017-06-27T04:21:20.844Z,1015.56
2017-06-27T04:22:43.222Z,1015.6
2017-06-27T04:24:05.054Z,1015.6
2017-06-27T04:25:26.561Z,1015.55
2017-06-27T04:26:48.042Z,1015.56
2017-06-27T04:28:10.474Z,1015.61
2017-06-27T04:29:32.364Z,1015.63
2017-06-27T04:30:54.172Z,1015.61
2017-06-27T04:32:16.314Z,1015.61
2017-06-27T04:33:38.794Z,1015.59
2017-06-27T04:35:00.803Z,1015.62
2017-06-27T04:36:22.599Z,1015.66
2017-06-27T04:37:44.500Z,1015.65
2017-06-27T04:39:06.964Z,1015.67
2017-06-27T04:40:29.147Z,1015.71
2017-06-27T04:41:51.273Z,1015.75
2017-06-27T04:43:13.710Z,1015.79
2017-06-27T04:44:36.182Z,1015.81
2017-06-27T04:45:58.014Z,1015.77
2017-06-27T04:47:20.453Z,1015.77
2017-06-27T04:48:41.943Z,1015.77
2017-06-27T04:50:04.422Z,1015.8
2017-06-27T04:51:26.984Z,1015.81
2017-06-27T04:52:49.214Z,1015.85
2017-06-27T04:54:11.151Z,1015.85
2017-06-27T04:55:33.324Z,1015.91
2017-06-27T04:56:55.153Z,1015.89
2017-06-27T04:58:17.014Z,1015.84
2017-06-27T04:59:38.824Z,1015.88
2017-06-27T05:01:01.054Z,1015.92
2017-06-27T05:02:22.898Z,1015.91
2017-06-27T05:03:44.703Z,1015.92
2017-06-27T05:05:06.926Z,1015.95
2017-06-27T05:06:29.106Z,1015.94
2017-06-27T05:07:50.601Z,1015.94
2017-06-27T05:09:12.743Z,1015.94
2017-06-27T05:10:34.889Z,1015.95
2017-06-27T05:11:57.344Z,1015.94
2017-06-27T05:13:19.898Z,1015.97
2017-06-27T05:14:41.403Z,1015.99
2017-06-27T05:16:02.904Z,1016
2017-06-27T05:17:25.694Z,1016
2017-06-27T05:18:47.851Z,1015.97
2017-06-27T05:20:10.102Z,1015.94
2017-06-27T05:21:31.914Z,1015.96
2017-06-27T05:22:53.991Z,1015.91
2017-06-27T05:24:16.263Z,1015.87
2017-06-27T05:25:38.083Z,1015.86
2017-06-27T05:27:00.635Z,1015.91
2017-06-27T05:28:23.085Z,1015.89
2017-06-27T05:29:45.584Z,1015.87
2017-06-27T05:31:08.053Z,1015.89
2017-06-27T05:32:29.593Z,1015.88
2017-06-27T05:33:52.048Z,1015.94
2017-06-27T05:35:14.495Z,1015.96
2017-06-27T05:36:36.363Z,1015.98
2017-06-27T05:37:58.501Z,1015.96
2017-06-27T05:39:20.615Z,1015.95
2017-06-27T05:40:43.062Z,1016.02
2017-06-27T05:42:04.893Z,1015.99
2017-06-27T05:43:27.365Z,1015.93
2017-06-27T05:44:49.452Z,1015.93
2017-06-27T05:46:11.745Z,1015.99
2017-06-27T05:47:33.682Z,1016.05
2017-06-27T05:48:55.812Z,1016.06
2017-06-27T05:50:18.363Z,1016.04
2017-06-27T05:51:40.209Z,1015.97
2017-06-27T05:53:02.723Z,1015.97
2017-06-27T05:54:24.866Z,1015.99
2017-06-27T05:55:47.371Z,1015.94
2017-06-27T05:57:09.083Z,1015.95
2017-06-27T05:58:30.596Z,1016.01
2017-06-27T05:59:52.765Z,1015.95
2017-06-27T06:01:15.622Z,1015.92
2017-06-27T06:02:37.464Z,1015.99
2017-06-27T06:03:59.927Z,1015.99
2017-06-27T06:05:21.763Z,1015.99
2017-06-27T06:06:43.944Z,1016.04
2017-06-27T06:08:06.083Z,1016.05
2017-06-27T06:09:28.240Z,1016.03
2017-06-27T06:10:50.411Z,1016
2017-06-27T06:12:12.912Z,1015.97
2017-06-27T06:13:34.771Z,1016
2017-06-27T06:14:57.024Z,1016
2017-06-27T06:16:19.492Z,1015.93
2017-06-27T06:17:41.566Z,1015.92
2017-06-27T06:19:03.683Z,1015.92
2017-06-27T06:20:25.512Z,1015.87
2017-06-27T06:21:47.505Z,1015.89
2017-06-27T06:23:09.333Z,1015.86
2017-06-27T06:24:31.462Z,1015.93
2017-06-27T06:25:53.623Z,1015.92
2017-06-27T06:27:16.141Z,1015.89
2017-06-27T06:28:38.310Z,1015.84
2017-06-27T06:30:00.158Z,1015.85
2017-06-27T06:31:22.092Z,1015.87
2017-06-27T06:32:44.356Z,1015.9
2017-06-27T06:34:07.155Z,1015.85
2017-06-27T06:35:28.985Z,1015.83
2017-06-27T06:36:51.135Z,1015.82
2017-06-27T06:38:13.301Z,1015.83
2017-06-27T06:39:36.062Z,1015.84
2017-06-27T06:40:57.905Z,1015.92
2017-06-27T06:42:19.743Z,1015.85
2017-06-27T06:43:42.227Z,1015.9
2017-06-27T06:45:04.741Z,1015.9
2017-06-27T06:46:26.886Z,1015.69
2017-06-27T06:47:49.026Z,1015.71
2017-06-27T06:49:11.186Z,1015.84
2017-06-27T06:50:33.603Z,1015.8
2017-06-27T06:51:55.763Z,1015.76
2017-06-27T06:53:17.292Z,1015.81
2017-06-27T06:54:39.111Z,1015.81
2017-06-27T06:56:00.877Z,1015.81
2017-06-27T06:57:22.401Z,1015.83
2017-06-27T06:58:44.580Z,1015.88
2017-06-27T07:00:06.090Z,1015.92
2017-06-27T07:01:28.553Z,1015.91
2017-06-27T07:02:50.744Z,1015.92
2017-06-27T07:04:12.586Z,1015.88
2017-06-27T07:05:34.142Z,1015.72
2017-06-27T07:06:55.986Z,1015.93
2017-06-27T07:08:18.227Z,1015.91
2017-06-27T07:09:40.067Z,1015.76
2017-06-27T07:11:01.290Z,1015.7
2017-06-27T07:12:23.697Z,1015.76
2017-06-27T07:13:45.877Z,1015.83
2017-06-27T07:15:08.155Z,1015.9
2017-06-27T07:16:30.625Z,1015.97
2017-06-27T07:17:53.142Z,1015.94
2017-06-27T07:19:15.282Z,1015.93
2017-06-27T07:20:37.504Z,1015.94
2017-06-27T07:21:59.966Z,1015.93
2017-06-27T07:23:22.152Z,1015.97
2017-06-27T07:24:44.009Z,1015.87
2017-06-27T07:26:06.164Z,1015.78
2017-06-27T07:27:28.334Z,1015.76
2017-06-27T07:28:50.842Z,1015.77
2017-06-27T07:30:12.696Z,1015.8
2017-06-27T07:31:34.507Z,1015.78
2017-06-27T07:32:56.657Z,1015.83
2017-06-27T07:34:19.163Z,1015.87
2017-06-27T07:35:41.427Z,1015.84
2017-06-27T07:37:03.716Z,1015.91
2017-06-27T07:38:25.732Z,1015.86
2017-06-27T07:39:48.242Z,1015.88
2017-06-27T07:41:10.449Z,1015.95
2017-06-27T07:42:32.285Z,1015.96
2017-06-27T07:43:53.831Z,1015.92
2017-06-27T07:45:16.013Z,1015.89
2017-06-27T07:46:37.532Z,1015.85
2017-06-27T07:47:58.817Z,1015.82
2017-06-27T07:49:21.060Z,1015.87
2017-06-27T07:50:43.423Z,1015.83
2017-06-27T07:52:05.593Z,1015.9
2017-06-27T07:53:27.763Z,1015.96
2017-06-27T07:54:50.247Z,1015.94
2017-06-27T07:56:12.342Z,1015.87
2017-06-27T07:57:34.542Z,1015.89
2017-06-27T07:58:56.135Z,1015.97
2017-06-27T08:00:18.372Z,1015.92
2017-06-27T08:01:41.199Z,1015.86
2017-06-27T08:03:03.096Z,1015.87
2017-06-27T08:04:25.253Z,1015.88
2017-06-27T08:05:47.152Z,1015.88
2017-06-27T08:07:09.966Z,1015.83
2017-06-27T08:08:31.854Z,1015.89
2017-06-27T08:09:53.983Z,1015.9
2017-06-27T08:11:16.150Z,1015.8
2017-06-27T08:12:38.962Z,1015.7
2017-06-27T08:14:01.476Z,1015.65
2017-06-27T08:15:24.193Z,1015.56
2017-06-27T08:16:46.023Z,1015.48
2017-06-27T08:18:08.444Z,1015.4
2017-06-27T08:19:30.922Z,1015.37
2017-06-27T08:20:52.163Z,1015.37
2017-06-27T08:22:13.743Z,1015.35
2017-06-27T08:23:35.927Z,1015.31
2017-06-27T08:24:58.063Z,1015.29
2017-06-27T08:26:20.344Z,1015.2
2017-06-27T08:27:42.605Z,1015.19
2017-06-27T08:29:04.373Z,1015.17
2017-06-27T08:30:26.508Z,1015.09
2017-06-27T08:31:48.967Z,1015.07
2017-06-27T08:33:11.465Z,1015.05
2017-06-27T08:34:33.657Z,1015.06
2017-06-27T08:35:55.863Z,1015.02
2017-06-27T08:37:18.375Z,1014.98
2017-06-27T08:38:40.223Z,1015.03
2017-06-27T08:40:02.028Z,1014.96
2017-06-27T08:41:24.519Z,1014.97
2017-06-27T08:42:46.994Z,1014.9
2017-06-27T08:44:09.126Z,1014.92
2017-06-27T08:45:31.901Z,1014.83
2017-06-27T08:46:54.332Z,1014.76
2017-06-27T08:48:16.173Z,1014.8
2017-06-27T08:49:38.002Z,1014.83
2017-06-27T08:51:00.412Z,1014.8
2017-06-27T08:52:22.315Z,1014.8
2017-06-27T08:53:44.133Z,1014.83
2017-06-27T08:55:06.274Z,1014.81
2017-06-27T08:56:28.696Z,1014.84
2017-06-27T08:57:50.902Z,1014.84
2017-06-27T08:59:13.086Z,1014.84
2017-06-27T09:00:34.920Z,1014.87
2017-06-27T09:01:57.724Z,1014.88
2017-06-27T09:03:19.568Z,1014.93
2017-06-27T09:04:41.793Z,1014.88
2017-06-27T09:06:04.242Z,1014.86
2017-06-27T09:07:26.339Z,1014.87
2017-06-27T09:08:48.185Z,1014.78
2017-06-27T09:10:10.332Z,1014.71
2017-06-27T09:11:32.497Z,1014.73
2017-06-27T09:12:55.223Z,1014.75
2017-06-27T09:14:17.358Z,1014.7
2017-06-27T09:15:38.884Z,1014.73
2017-06-27T09:17:01.453Z,1014.66
2017-06-27T09:18:23.633Z,1014.66
2017-06-27T09:19:45.761Z,1014.62
2017-06-27T09:21:07.912Z,1014.7
2017-06-27T09:22:30.143Z,1014.76
2017-06-27T09:23:52.652Z,1014.76
2017-06-27T09:25:15.117Z,1014.76
2017-06-27T09:26:36.934Z,1014.69
2017-06-27T09:27:59.064Z,1014.7
2017-06-27T09:29:21.252Z,1014.69
2017-06-27T09:30:43.399Z,1014.68
2017-06-27T09:32:05.573Z,1014.72
2017-06-27T09:33:27.773Z,1014.68
2017-06-27T09:34:50.352Z,1014.68
2017-06-27T09:36:12.551Z,1014.63
2017-06-27T09:37:34.704Z,1014.68
2017-06-27T09:38:56.550Z,1014.6
2017-06-27T09:40:19.167Z,1014.65
2017-06-27T09:41:41.627Z,1014.59
2017-06-27T09:43:03.476Z,1014.47
2017-06-27T09:44:25.633Z,1014.52
2017-06-27T09:45:48.484Z,1014.58
2017-06-27T09:47:10.305Z,1014.64
2017-06-27T09:48:32.152Z,1014.61
2017-06-27T09:49:54.274Z,1014.61
2017-06-27T09:51:16.419Z,1014.65
2017-06-27T09:52:38.584Z,1014.63
2017-06-27T09:54:00.948Z,1014.6
2017-06-27T09:55:22.443Z,1014.64
2017-06-27T09:56:44.253Z,1014.58
2017-06-27T09:58:06.075Z,1014.52
2017-06-27T09:59:28.252Z,1014.43
2017-06-27T10:00:50.431Z,1014.43
2017-06-27T10:02:13.241Z,1014.43
2017-06-27T10:03:35.383Z,1014.46
2017-06-27T10:04:57.514Z,1014.48
2017-06-27T10:06:19.658Z,1014.47
2017-06-27T10:07:42.169Z,1014.43
2017-06-27T10:09:04.299Z,1014.42
2017-06-27T10:10:26.529Z,1014.43
2017-06-27T10:11:48.403Z,1014.42
2017-06-27T10:13:10.965Z,1014.44
2017-06-27T10:14:33.419Z,1014.38
2017-06-27T10:15:55.942Z,1014.4
2017-06-27T10:17:18.101Z,1014.42
2017-06-27T10:18:39.903Z,1014.39
2017-06-27T10:20:01.843Z,1014.42
2017-06-27T10:21:23.971Z,1014.37
2017-06-27T10:22:45.913Z,1014.34
2017-06-27T10:24:08.444Z,1014.32
2017-06-27T10:25:30.680Z,1014.31
2017-06-27T10:26:53.122Z,1014.3
2017-06-27T10:28:14.976Z,1014.29
2017-06-27T10:29:37.564Z,1014.22
2017-06-27T10:31:00.014Z,1014.21
2017-06-27T10:32:22.218Z,1014.2
2017-06-27T10:33:44.028Z,1014.18
2017-06-27T10:35:06.492Z,1014.13
2017-06-27T10:36:28.482Z,1014.14
2017-06-27T10:37:50.632Z,1014.21
2017-06-27T10:39:13.111Z,1014.25
2017-06-27T10:40:35.238Z,1014.25
2017-06-27T10:41:57.084Z,1014.25
2017-06-27T10:43:19.224Z,1014.27
2017-06-27T10:44:41.678Z,1014.23
2017-06-27T10:46:04.172Z,1014.19
2017-06-27T10:47:25.713Z,1014.18
2017-06-27T10:48:48.289Z,1014.14
2017-06-27T10:50:10.123Z,1014.19
2017-06-27T10:51:32.973Z,1014.22
2017-06-27T10:52:54.822Z,1014.11
2017-06-27T10:54:16.973Z,1014.12
2017-06-27T10:55:38.792Z,1014.09
2017-06-27T10:57:01.232Z,1014.09
2017-06-27T10:58:23.676Z,1014.03
2017-06-27T10:59:46.206Z,1014.02
2017-06-27T11:01:08.693Z,1014
2017-06-27T11:02:31.268Z,1014.07
2017-06-27T11:03:53.772Z,1014.05
2017-06-27T11:05:15.924Z,1013.99
2017-06-27T11:06:38.513Z,1013.96
2017-06-27T11:08:00.303Z,1013.98
2017-06-27T11:09:22.152Z,1014
2017-06-27T11:10:44.634Z,1014
2017-06-27T11:12:06.788Z,1013.9
2017-06-27T11:13:29.682Z,1013.93
2017-06-27T11:14:51.813Z,1013.93
2017-06-27T11:16:14.256Z,1013.84
2017-06-27T11:17:36.720Z,1013.82
2017-06-27T11:18:59.159Z,1013.81
2017-06-27T11:20:21.713Z,1013.76
2017-06-27T11:21:43.893Z,1013.81
2017-06-27T11:23:05.473Z,1013.84
2017-06-27T11:24:28.192Z,1013.85
2017-06-27T11:25:50.044Z,1013.82
2017-06-27T11:27:11.874Z,1013.83
2017-06-27T11:28:33.695Z,1013.78
2017-06-27T11:29:56.374Z,1013.77
2017-06-27T11:31:18.814Z,1013.72
2017-06-27T11:32:40.025Z,1013.73
2017-06-27T11:34:02.627Z,1013.81
2017-06-27T11:35:24.727Z,1013.8
2017-06-27T11:36:46.904Z,1013.86
2017-06-27T11:38:09.054Z,1013.78
2017-06-27T11:39:30.881Z,1013.64
2017-06-27T11:40:53.288Z,1013.57
2017-06-27T11:42:15.731Z,1013.47
2017-06-27T11:43:37.963Z,1013.5
2017-06-27T11:45:00.112Z,1013.49
2017-06-27T11:46:23.024Z,1013.5
2017-06-27T11:47:44.892Z,1013.45
2017-06-27T11:49:06.489Z,1013.42
2017-06-27T11:50:28.971Z,1013.35
2017-06-27T11:51:51.079Z,1013.41
2017-06-27T11:53:12.594Z,1013.4
2017-06-27T11:54:35.057Z,1013.4
2017-06-27T11:55:57.513Z,1013.4
2017-06-27T11:57:20.327Z,1013.4
2017-06-27T11:58:42.483Z,1013.38
2017-06-27T12:00:04.703Z,1013.33
2017-06-27T12:01:27.162Z,1013.34
2017-06-27T12:02:49.654Z,1013.37
2017-06-27T12:04:11.782Z,1013.42
2017-06-27T12:05:34.213Z,1013.33
2017-06-27T12:06:56.396Z,1013.26
2017-06-27T12:08:19.215Z,1013.23
2017-06-27T12:09:41.676Z,1013.14
2017-06-27T12:11:03.633Z,1013.19
2017-06-27T12:12:25.777Z,1013.18
2017-06-27T12:13:48.173Z,1013.1
2017-06-27T12:15:10.613Z,1013.1
2017-06-27T12:16:32.540Z,1013.12
2017-06-27T12:17:54.673Z,1013.02
2017-06-27T12:19:17.323Z,1013.06
2017-06-27T12:20:39.467Z,1013.08
2017-06-27T12:22:01.307Z,1013.01
2017-06-27T12:23:23.433Z,1013.05
2017-06-27T12:24:46.322Z,1013
2017-06-27T12:26:08.486Z,1013
2017-06-27T12:27:30.673Z,1012.99
2017-06-27T12:28:53.119Z,1012.97
2017-06-27T12:30:15.788Z,1012.99
2017-06-27T12:31:37.942Z,1012.95
2017-06-27T12:33:00.103Z,1012.85
2017-06-27T12:34:22.085Z,1012.9
2017-06-27T12:35:44.637Z,1012.8
2017-06-27T12:37:06.797Z,1012.94
2017-06-27T12:38:29.306Z,1012.87
2017-06-27T12:39:51.474Z,1012.83
2017-06-27T12:41:14.233Z,1012.73
2017-06-27T12:42:36.383Z,1012.76
2017-06-27T12:43:58.575Z,1012.75
2017-06-27T12:45:20.437Z,1012.74
2017-06-27T12:46:42.883Z,1012.74
2017-06-27T12:48:05.333Z,1012.7
2017-06-27T12:49:27.886Z,1012.68
2017-06-27T12:50:50.362Z,1012.72
2017-06-27T12:52:12.844Z,1012.74
2017-06-27T12:53:34.992Z,1012.67
2017-06-27T12:54:57.157Z,1012.6
2017-06-27T12:56:18.799Z,1012.53
2017-06-27T12:57:40.944Z,1012.56
2017-06-27T12:59:03.128Z,1012.56
2017-06-27T13:00:25.890Z,1012.56
2017-06-27T13:01:48.359Z,1012.54
2017-06-27T13:03:10.112Z,1012.56
2017-06-27T13:04:31.943Z,1012.62
2017-06-27T13:05:54.420Z,1012.63
2017-06-27T13:07:16.575Z,1012.64
2017-06-27T13:08:38.708Z,1012.68
2017-06-27T13:10:00.219Z,1012.63
2017-06-27T13:11:22.490Z,1012.6
2017-06-27T13:12:44.640Z,1012.63
2017-06-27T13:14:06.926Z,1012.67
2017-06-27T13:15:29.184Z,1012.66
2017-06-27T13:16:51.009Z,1012.69
2017-06-27T13:18:12.903Z,1012.66
2017-06-27T13:19:35.026Z,1012.59
2017-06-27T13:20:57.174Z,1012.64
2017-06-27T13:22:19.063Z,1012.57
2017-06-27T13:23:40.925Z,1012.52
2017-06-27T13:25:03.753Z,1012.5
2017-06-27T13:26:26.003Z,1012.49
2017-06-27T13:27:48.134Z,1012.52
2017-06-27T13:29:10.321Z,1012.48
2017-06-27T13:30:32.839Z,1012.46
2017-06-27T13:31:54.724Z,1012.38
2017-06-27T13:33:16.875Z,1012.44
2017-06-27T13:34:39.433Z,1012.38
2017-06-27T13:36:02.326Z,1012.37
2017-06-27T13:37:23.862Z,1012.35
2017-06-27T13:38:45.747Z,1012.33
2017-06-27T13:40:08.351Z,1012.32
2017-06-27T13:41:30.462Z,1012.29
2017-06-27T13:42:52.624Z,1012.34
2017-06-27T13:44:15.085Z,1012.35
2017-06-27T13:45:37.223Z,1012.32
2017-06-27T13:46:59.625Z,1012.33
2017-06-27T13:48:21.792Z,1012.31
2017-06-27T13:49:43.614Z,1012.33
2017-06-27T13:51:05.453Z,1012.29
2017-06-27T13:52:27.913Z,1012.33
2017-06-27T13:53:50.072Z,1012.23
2017-06-27T13:55:12.080Z,1012.18
2017-06-27T13:56:33.919Z,1012.1
2017-06-27T13:57:56.323Z,1012.03
2017-06-27T13:59:18.497Z,1012.04
2017-06-27T14:00:40.951Z,1012.02
2017-06-27T14:02:03.414Z,1011.99
2017-06-27T14:03:25.659Z,1011.97
2017-06-27T14:04:48.114Z,1011.97
2017-06-27T14:06:09.994Z,1011.97
2017-06-27T14:07:32.457Z,1012
2017-06-27T14:08:55.339Z,1012.02
2017-06-27T14:10:17.598Z,1012
2017-06-27T14:11:40.133Z,1012.07
2017-06-27T14:13:01.957Z,1012.02
2017-06-27T14:14:24.097Z,1012.05
2017-06-27T14:15:46.546Z,1012.04
2017-06-27T14:17:08.998Z,1012.02
2017-06-27T14:18:30.245Z,1011.95
2017-06-27T14:19:52.753Z,1011.93
2017-06-27T14:21:15.245Z,1011.95
2017-06-27T14:22:37.182Z,1011.9
2017-06-27T14:23:59.131Z,1011.89
2017-06-27T14:25:22.065Z,1011.8
2017-06-27T14:26:44.525Z,1011.76
2017-06-27T14:28:06.362Z,1011.77
2017-06-27T14:29:28.892Z,1011.74
2017-06-27T14:30:51.132Z,1011.78
2017-06-27T14:32:12.761Z,1011.75
2017-06-27T14:33:34.605Z,1011.75
2017-06-27T14:34:56.133Z,1011.71
2017-06-27T14:36:19.069Z,1011.82
2017-06-27T14:37:40.663Z,1011.74
2017-06-27T14:39:02.984Z,1011.72
2017-06-27T14:40:25.419Z,1011.68
2017-06-27T14:41:46.925Z,1011.65
2017-06-27T14:43:09.073Z,1011.65
2017-06-27T14:44:30.589Z,1011.63
2017-06-27T14:45:52.427Z,1011.61
2017-06-27T14:47:14.901Z,1011.56
2017-06-27T14:48:37.475Z,1011.6
2017-06-27T14:49:59.373Z,1011.68
2017-06-27T14:51:21.194Z,1011.68
2017-06-27T14:52:44.010Z,1011.64
2017-06-27T14:54:06.291Z,1011.61
2017-06-27T14:55:28.740Z,1011.52
2017-06-27T14:56:49.941Z,1011.51
2017-06-27T14:58:12.518Z,1011.48
2017-06-27T14:59:34.990Z,1011.44
2017-06-27T15:00:57.233Z,1011.42
2017-06-27T15:02:19.088Z,1011.4
2017-06-27T15:03:41.920Z,1011.4
2017-06-27T15:05:03.802Z,1011.32
2017-06-27T15:06:25.944Z,1011.28
2017-06-27T15:07:48.073Z,1011.26
2017-06-27T15:09:10.164Z,1011.19
2017-06-27T15:10:32.627Z,1011.16
2017-06-27T15:11:54.786Z,1011.16
2017-06-27T15:13:16.924Z,1011.14
2017-06-27T15:14:39.670Z,1011.18
2017-06-27T15:16:01.974Z,1011.13
2017-06-27T15:17:24.223Z,1011.14
2017-06-27T15:18:46.379Z,1011.13
2017-06-27T15:20:08.953Z,1011.04
2017-06-27T15:21:31.113Z,1011.04
2017-06-27T15:22:53.278Z,1010.97
2017-06-27T15:24:15.531Z,1010.94
2017-06-27T15:25:37.993Z,1010.93
2017-06-27T15:27:00.443Z,1010.94
2017-06-27T15:28:22.909Z,1010.92
2017-06-27T15:29:45.044Z,1010.91
2017-06-27T15:31:07.144Z,1010.9
2017-06-27T15:32:29.302Z,1010.78
2017-06-27T15:33:50.904Z,1010.83
2017-06-27T15:35:13.050Z,1010.76
2017-06-27T15:36:35.242Z,1010.78
2017-06-27T15:37:57.698Z,1010.8
2017-06-27T15:39:19.861Z,1010.87
2017-06-27T15:40:42.003Z,1010.8
2017-06-27T15:42:04.498Z,1010.78
2017-06-27T15:43:26.371Z,1010.81
2017-06-27T15:44:48.581Z,1010.84
2017-06-27T15:46:10.714Z,1010.78
2017-06-27T15:47:33.660Z,1010.76
2017-06-27T15:48:56.110Z,1010.74
2017-06-27T15:50:18.359Z,1010.63
2017-06-27T15:51:39.568Z,1010.64
2017-06-27T15:53:01.702Z,1010.63
2017-06-27T15:54:24.270Z,1010.57
2017-06-27T15:55:46.423Z,1010.6
2017-06-27T15:57:08.667Z,1010.65
2017-06-27T15:58:31.431Z,1010.63
2017-06-27T15:59:54.074Z,1010.64
2017-06-27T16:01:16.211Z,1010.63
2017-06-27T16:02:38.442Z,1010.6
2017-06-27T16:04:00.912Z,1010.67
2017-06-27T16:05:22.850Z,1010.65
2017-06-27T16:06:44.988Z,1010.61
2017-06-27T16:08:07.144Z,1010.59
2017-06-27T16:09:29.264Z,1010.55
2017-06-27T16:10:51.422Z,1010.55
2017-06-27T16:12:13.281Z,1010.58
2017-06-27T16:13:35.738Z,1010.52
2017-06-27T16:14:57.908Z,1010.53
2017-06-27T16:16:20.073Z,1010.52
2017-06-27T16:17:42.215Z,1010.52
2017-06-27T16:19:04.391Z,1010.54
2017-06-27T16:20:26.823Z,1010.49
2017-06-27T16:21:49.348Z,1010.49
2017-06-27T16:23:11.834Z,1010.48
2017-06-27T16:24:33.769Z,1010.45
2017-06-27T16:25:55.842Z,1010.42
2017-06-27T16:27:17.664Z,1010.41
2017-06-27T16:28:39.836Z,1010.39
2017-06-27T16:30:01.677Z,1010.35
2017-06-27T16:31:24.162Z,1010.33
2017-06-27T16:32:46.655Z,1010.3
2017-06-27T16:34:09.139Z,1010.27
2017-06-27T16:35:31.439Z,1010.23
2017-06-27T16:36:53.837Z,1010.21
2017-06-27T16:38:16.310Z,1010.22